Time;durP1;ratioP1;P1;durP2;ratioP2;P2;SDS_P1;SDS_P2;PMS_P1;PMS_P2;Temp;Humidity;BMP_temperature;BMP_pressure;BME280_temperature;BME280_humidity;BME280_pressure;Samples;Min_cycle;Max_cycle;Signal;HPM_P1;HPM_P2
2021/10/29 00:01:13;;;;;;;1.93;1.20;;;5.60;98.00;;;;;;5112645;28;20513;-62
2021/10/29 00:03:41;;;;;;;1.20;1.20;;;5.60;98.00;;;;;;5112654;28;21131;-63
2021/10/29 00:06:08;;;;;;;1.40;1.27;;;5.70;98.00;;;;;;5112568;28;21045;-63
2021/10/29 00:08:36;;;;;;;1.37;1.33;;;5.80;98.00;;;;;;5112555;28;21030;-63
2021/10/29 00:11:03;;;;;;;1.50;1.40;;;5.80;98.00;;;;;;5112465;28;20455;-63
2021/10/29 00:13:31;;;;;;;1.20;1.20;;;5.70;98.00;;;;;;5112509;28;20480;-62
2021/10/29 00:15:58;;;;;;;3.50;1.60;;;5.70;98.00;;;;;;5111265;28;20907;-63
2021/10/29 00:18:25;;;;;;;3.97;2.50;;;5.60;98.00;;;;;;5112592;28;20456;-63
2021/10/29 00:20:53;;;;;;;4.63;1.63;;;5.60;98.00;;;;;;5112296;28;20447;-63
2021/10/29 00:23:22;;;;;;;1.20;1.00;;;5.70;98.00;;;;;;5112546;28;20485;-63
2021/10/29 00:25:49;;;;;;;3.33;1.73;;;5.80;98.00;;;;;;5112239;28;20468;-63
2021/10/29 00:28:16;;;;;;;1.20;1.10;;;5.70;98.00;;;;;;5112615;28;20852;-63
2021/10/29 00:30:43;;;;;;;1.30;1.20;;;5.70;98.00;;;;;;5112483;28;20492;-63
2021/10/29 00:33:15;;;;;;;1.30;1.10;;;5.70;98.00;;;;;;5112663;28;20517;-63
2021/10/29 00:35:42;;;;;;;1.20;1.00;;;5.70;98.00;;;;;;5112255;28;20832;-63
2021/10/29 00:38:11;;;;;;;2.03;1.73;;;5.90;98.00;;;;;;5111709;28;20485;-63
2021/10/29 00:40:39;;;;;;;3.60;1.50;;;6.00;98.00;;;;;;5111496;28;20544;-63
2021/10/29 00:43:06;;;;;;;4.90;2.70;;;6.10;98.00;;;;;;5111591;28;20478;-62
2021/10/29 00:45:34;;;;;;;3.57;2.43;;;6.00;98.00;;;;;;5110634;28;20501;-63
2021/10/29 00:48:01;;;;;;;3.07;2.03;;;6.00;98.00;;;;;;5111946;28;20456;-63
2021/10/29 00:50:28;;;;;;;2.40;2.00;;;5.90;98.00;;;;;;5111900;28;20510;-63
2021/10/29 00:52:56;;;;;;;2.63;1.60;;;5.90;98.00;;;;;;5112180;28;20461;-63
2021/10/29 00:55:25;;;;;;;1.50;1.33;;;5.90;98.00;;;;;;5111824;28;20492;-63
2021/10/29 00:57:52;;;;;;;3.67;1.57;;;6.00;98.00;;;;;;5110755;28;20447;-63
2021/10/29 01:00:22;;;;;;;1.30;1.10;;;6.00;98.00;;;;;;5111745;28;20478;-63
2021/10/29 01:02:49;;;;;;;1.30;1.30;;;6.10;98.00;;;;;;5114785;28;20497;-63
2021/10/29 01:05:16;;;;;;;1.73;1.47;;;6.10;98.00;;;;;;5114839;28;21022;-63
2021/10/29 01:07:44;;;;;;;1.50;1.40;;;6.10;98.00;;;;;;5116104;28;20454;-63
2021/10/29 01:10:11;;;;;;;2.73;1.30;;;5.90;98.00;;;;;;5116009;28;20508;-63
2021/10/29 01:12:40;;;;;;;1.63;1.40;;;5.70;98.00;;;;;;5115824;28;20457;-63
2021/10/29 01:15:09;;;;;;;2.40;1.93;;;5.60;98.00;;;;;;5115953;28;20596;-63
2021/10/29 01:17:36;;;;;;;1.40;1.20;;;5.50;98.00;;;;;;5115892;28;20506;-63
2021/10/29 01:20:05;;;;;;;1.57;1.40;;;5.50;98.00;;;;;;5115640;28;20834;-63
2021/10/29 01:22:34;;;;;;;3.63;1.60;;;5.50;98.00;;;;;;5115678;28;20492;-63
2021/10/29 01:25:01;;;;;;;1.20;1.00;;;5.70;98.00;;;;;;5115528;28;21037;-63
2021/10/29 01:27:29;;;;;;;3.83;1.67;;;5.70;98.00;;;;;;5115685;28;20517;-63
2021/10/29 01:29:57;;;;;;;4.13;1.63;;;5.80;98.00;;;;;;5115430;28;20453;-62
2021/10/29 01:32:24;;;;;;;1.37;1.20;;;5.80;98.00;;;;;;5115606;28;20453;-63
2021/10/29 01:34:51;;;;;;;1.30;1.10;;;5.60;98.00;;;;;;5114182;28;20451;-62
2021/10/29 01:37:18;;;;;;;3.10;1.60;;;5.70;98.00;;;;;;5115746;28;20972;-62
2021/10/29 01:39:47;;;;;;;1.80;1.33;;;5.50;98.00;;;;;;5115459;28;20503;-62
2021/10/29 01:42:14;;;;;;;1.57;1.40;;;5.40;98.00;;;;;;5115483;28;20448;-63
2021/10/29 01:44:41;;;;;;;1.20;1.13;;;5.40;98.00;;;;;;5115387;28;20988;-63
2021/10/29 01:47:09;;;;;;;1.20;1.00;;;5.70;98.00;;;;;;5115640;28;20463;-63
2021/10/29 01:49:38;;;;;;;1.27;1.20;;;5.80;98.00;;;;;;5115372;28;20931;-62
2021/10/29 01:52:05;;;;;;;1.77;1.57;;;5.50;98.00;;;;;;5115409;28;20462;-63
2021/10/29 01:54:33;;;;;;;1.67;1.50;;;5.40;98.00;;;;;;5115436;28;20446;-62
2021/10/29 01:57:01;;;;;;;1.30;1.00;;;5.30;98.00;;;;;;5113774;28;20512;-63
2021/10/29 01:59:31;;;;;;;2.23;1.73;;;5.20;98.00;;;;;;5114923;28;20517;-62
2021/10/29 02:01:58;;;;;;;1.40;1.10;;;5.10;98.00;;;;;;5114792;28;20464;-62
2021/10/29 02:04:25;;;;;;;1.93;1.30;;;5.00;98.00;;;;;;5114982;28;21005;-63
2021/10/29 02:06:52;;;;;;;1.60;1.27;;;5.00;98.00;;;;;;5114778;28;20455;-62
2021/10/29 02:09:19;;;;;;;2.60;1.27;;;5.00;98.00;;;;;;5114784;28;20485;-62
2021/10/29 02:11:46;;;;;;;1.20;1.10;;;5.00;98.00;;;;;;5114664;28;20948;-62
2021/10/29 02:14:15;;;;;;;1.60;1.30;;;5.10;98.00;;;;;;5112128;28;20567;-62
2021/10/29 02:16:43;;;;;;;1.43;1.20;;;5.10;98.00;;;;;;5114478;28;20941;-63
2021/10/29 02:19:11;;;;;;;1.60;1.10;;;4.90;98.00;;;;;;5114532;28;20439;-63
2021/10/29 02:21:38;;;;;;;1.70;1.50;;;5.00;98.00;;;;;;5114370;28;20464;-62
2021/10/29 02:24:05;;;;;;;1.83;1.30;;;5.10;98.00;;;;;;5114551;28;20996;-62
2021/10/29 02:26:34;;;;;;;2.23;1.40;;;5.20;98.00;;;;;;5114239;28;20499;-62
2021/10/29 02:29:02;;;;;;;1.43;1.30;;;5.20;98.00;;;;;;5114889;28;20489;-62
2021/10/29 02:31:30;;;;;;;1.47;1.20;;;5.00;98.00;;;;;;5114239;28;20492;-63
2021/10/29 02:33:58;;;;;;;1.43;1.40;;;4.90;98.00;;;;;;5114458;28;20783;-63
2021/10/29 02:36:27;;;;;;;1.30;1.10;;;4.90;98.00;;;;;;5115015;28;21001;-63
2021/10/29 02:38:54;;;;;;;1.40;1.20;;;4.80;98.00;;;;;;5114436;28;20486;-63
2021/10/29 02:41:22;;;;;;;1.70;1.63;;;4.80;98.00;;;;;;5114286;28;20981;-63
2021/10/29 02:43:49;;;;;;;2.57;2.00;;;4.90;98.00;;;;;;5112992;28;21190;-62
2021/10/29 02:46:20;;;;;;;1.40;1.30;;;5.00;98.00;;;;;;5114182;28;20452;-63
2021/10/29 02:48:50;;;;;;;3.10;1.40;;;4.90;98.00;;;;;;5114397;28;20450;-62
2021/10/29 02:51:17;;;;;;;1.40;1.20;;;4.90;98.00;;;;;;5114466;28;20466;-63
2021/10/29 02:53:44;;;;;;;1.70;1.20;;;4.90;98.00;;;;;;5114076;28;20448;-62
2021/10/29 02:56:11;;;;;;;2.20;1.30;;;5.00;98.00;;;;;;5114112;28;20456;-62
2021/10/29 02:58:38;;;;;;;2.47;1.20;;;4.90;98.00;;;;;;5113986;28;20513;-63
2021/10/29 03:01:06;;;;;;;2.17;1.47;;;4.80;98.00;;;;;;5113743;28;20813;-62
2021/10/29 03:03:33;;;;;;;1.20;1.00;;;4.80;98.00;;;;;;5113822;28;20450;-62
2021/10/29 03:06:02;;;;;;;1.60;1.30;;;4.70;98.00;;;;;;5113949;28;20484;-62
2021/10/29 03:08:29;;;;;;;1.20;1.03;;;4.60;98.00;;;;;;5113834;28;20457;-63
2021/10/29 03:10:56;;;;;;;5.90;1.93;;;4.50;98.00;;;;;;5113515;28;20506;-62
2021/10/29 03:13:23;;;;;;;1.20;1.20;;;4.60;98.00;;;;;;5113908;28;20459;-63
2021/10/29 03:15:51;;;;;;;1.20;1.00;;;4.70;98.00;;;;;;5113471;28;21011;-62
2021/10/29 03:18:20;;;;;;;2.30;2.13;;;4.70;98.00;;;;;;5113596;28;21019;-62
2021/10/29 03:20:48;;;;;;;1.63;1.20;;;4.70;98.00;;;;;;5113394;28;20946;-63
2021/10/29 03:23:17;;;;;;;1.30;1.10;;;4.90;98.00;;;;;;5113213;28;21109;-62
2021/10/29 03:25:45;;;;;;;1.40;1.30;;;5.00;98.00;;;;;;5112894;28;20481;-62
2021/10/29 03:28:14;;;;;;;1.20;1.10;;;5.00;98.00;;;;;;5113176;27;21011;-63
2021/10/29 03:30:41;;;;;;;1.20;1.00;;;5.00;98.00;;;;;;5112130;28;20486;-63
2021/10/29 03:33:09;;;;;;;2.13;1.30;;;5.00;98.00;;;;;;5113012;28;20462;-62
2021/10/29 03:35:36;;;;;;;3.87;2.00;;;5.10;98.00;;;;;;5112959;28;20452;-62
2021/10/29 03:40:54;;;;;;;2.40;2.00;;;4.70;98.00;;;;;;5112451;28;20456;-63
2021/10/29 03:43:25;;;;;;;1.20;1.00;;;4.60;98.00;;;;;;5113146;28;20455;-62
2021/10/29 03:45:55;;;;;;;1.27;1.13;;;4.60;98.00;;;;;;5113000;28;20484;-62
2021/10/29 03:48:29;;;;;;;1.73;1.40;;;4.70;98.00;;;;;;5113054;28;20541;-62
2021/10/29 03:51:07;;;;;;;3.10;1.60;;;4.70;98.00;;;;;;5112747;28;20929;-62
2021/10/29 03:53:40;;;;;;;1.53;1.27;;;4.70;98.00;;;;;;5112880;28;20456;-62
2021/10/29 03:56:17;;;;;;;1.93;1.57;;;4.60;98.00;;;;;;5112698;28;20481;-62
2021/10/29 03:58:44;;;;;;;1.20;1.10;;;4.60;98.00;;;;;;5112639;28;20469;-62
2021/10/29 04:01:15;;;;;;;2.43;1.60;;;4.70;98.00;;;;;;5112754;28;20448;-62
2021/10/29 04:03:43;;;;;;;4.63;1.50;;;4.90;98.00;;;;;;5112608;28;20451;-62
2021/10/29 04:06:11;;;;;;;1.30;1.13;;;5.00;98.00;;;;;;5112583;28;20461;-62
2021/10/29 04:08:38;;;;;;;2.70;1.57;;;5.10;98.00;;;;;;5112669;28;20481;-63
2021/10/29 04:11:08;;;;;;;1.20;1.00;;;5.10;98.00;;;;;;5112460;28;20478;-62
2021/10/29 04:13:38;;;;;;;1.73;1.50;;;5.20;98.00;;;;;;5112540;28;20459;-62
2021/10/29 04:16:06;;;;;;;1.20;1.10;;;5.20;98.00;;;;;;5112473;28;20892;-63
2021/10/29 04:18:36;;;;;;;1.30;1.10;;;5.00;98.00;;;;;;5112442;28;20866;-62
2021/10/29 04:21:03;;;;;;;1.50;1.10;;;5.00;98.00;;;;;;5112341;28;20479;-62
2021/10/29 04:23:31;;;;;;;1.87;1.20;;;5.10;98.00;;;;;;5112360;28;20501;-62
2021/10/29 04:25:59;;;;;;;2.50;1.33;;;5.20;98.00;;;;;;5112238;28;20519;-63
2021/10/29 04:28:28;;;;;;;1.33;1.20;;;5.20;98.00;;;;;;5112451;28;20474;-63
2021/10/29 04:30:55;;;;;;;1.90;1.40;;;5.20;98.00;;;;;;5112500;28;20522;-62
2021/10/29 04:33:22;;;;;;;1.20;1.07;;;5.30;98.00;;;;;;5112583;28;20466;-62
2021/10/29 04:35:54;;;;;;;1.40;1.27;;;5.30;98.00;;;;;;5111876;28;20450;-63
2021/10/29 04:38:22;;;;;;;1.70;1.20;;;5.30;98.00;;;;;;5112509;28;20486;-62
2021/10/29 04:40:51;;;;;;;1.50;1.30;;;5.30;98.00;;;;;;5112140;28;20957;-62
2021/10/29 04:43:18;;;;;;;8.00;1.77;;;5.30;98.00;;;;;;5112148;28;20458;-62
2021/10/29 04:45:46;;;;;;;2.33;1.23;;;5.30;98.00;;;;;;5111847;28;21120;-62
2021/10/29 04:48:14;;;;;;;1.97;1.50;;;5.00;98.00;;;;;;5112113;28;20514;-62
2021/10/29 04:50:41;;;;;;;2.23;1.67;;;4.90;98.00;;;;;;5112120;28;20520;-62
2021/10/29 04:53:10;;;;;;;1.20;1.20;;;4.90;98.00;;;;;;5111837;28;20526;-62
2021/10/29 04:55:37;;;;;;;1.20;1.10;;;4.90;98.00;;;;;;5112044;28;20534;-63
2021/10/29 04:58:06;;;;;;;1.20;1.00;;;4.80;98.00;;;;;;5112159;28;20559;-63
2021/10/29 05:00:33;;;;;;;1.20;1.10;;;4.70;98.00;;;;;;5111613;28;20561;-63
2021/10/29 05:03:02;;;;;;;2.30;1.40;;;4.90;98.00;;;;;;5111828;28;21026;-62
2021/10/29 05:05:30;;;;;;;1.70;1.60;;;4.70;98.00;;;;;;5111896;28;20530;-62
2021/10/29 05:07:56;;;;;;;5.13;1.20;;;4.80;98.00;;;;;;5111843;28;20453;-62
2021/10/29 05:10:24;;;;;;;1.90;1.50;;;4.90;98.00;;;;;;5111706;28;21011;-63
2021/10/29 05:12:51;;;;;;;1.40;1.23;;;5.00;98.00;;;;;;5111884;28;20451;-62
2021/10/29 05:15:28;;;;;;;1.37;1.33;;;5.00;98.00;;;;;;5112169;28;20504;-63
2021/10/29 05:17:55;;;;;;;1.70;1.30;;;5.00;98.00;;;;;;5111710;28;20459;-62
2021/10/29 05:20:24;;;;;;;1.20;1.00;;;5.20;98.00;;;;;;5111884;28;20468;-62
2021/10/29 05:22:51;;;;;;;1.53;1.43;;;5.30;98.00;;;;;;5111960;28;20456;-62
2021/10/29 05:25:18;;;;;;;1.30;1.10;;;5.30;98.00;;;;;;5111527;28;20562;-63
2021/10/29 05:27:45;;;;;;;1.70;1.33;;;5.30;98.00;;;;;;5111734;28;20453;-63
2021/10/29 05:30:13;;;;;;;2.43;1.17;;;5.20;98.00;;;;;;5111747;28;20476;-62
2021/10/29 05:32:40;;;;;;;2.70;2.10;;;5.10;98.00;;;;;;5111652;28;20490;-62
2021/10/29 05:35:08;;;;;;;1.50;1.37;;;5.00;98.00;;;;;;5111518;28;21081;-62
2021/10/29 05:37:39;;;;;;;1.30;1.10;;;5.00;98.00;;;;;;5111671;28;21073;-62
2021/10/29 05:40:08;;;;;;;1.90;1.30;;;5.10;98.00;;;;;;5111655;28;20454;-62
2021/10/29 05:42:35;;;;;;;1.30;1.17;;;5.00;98.00;;;;;;5111770;28;20987;-63
2021/10/29 05:45:04;;;;;;;4.13;1.50;;;5.10;98.00;;;;;;5111872;28;20479;-62
2021/10/29 05:47:34;;;;;;;1.40;1.10;;;5.00;98.00;;;;;;5112360;28;21011;-62
2021/10/29 05:50:04;;;;;;;1.30;1.10;;;5.00;98.00;;;;;;5115462;28;20535;-63
2021/10/29 05:52:31;;;;;;;1.20;1.00;;;5.00;98.00;;;;;;5115123;28;21078;-62
2021/10/29 05:55:16;;;;;;;2.87;1.97;;;4.80;98.00;;;;;;5115543;28;20454;-62
2021/10/29 05:57:44;;;;;;;6.30;1.50;;;4.70;98.00;;;;;;5115406;28;20448;-63
2021/10/29 06:00:13;;;;;;;3.30;1.53;;;4.50;98.00;;;;;;5115041;28;20490;-62
2021/10/29 06:02:40;;;;;;;1.80;1.30;;;4.60;98.00;;;;;;5115530;28;20460;-62
2021/10/29 06:05:08;;;;;;;1.20;1.00;;;4.50;98.00;;;;;;5114782;28;20481;-62
2021/10/29 06:07:36;;;;;;;1.30;1.27;;;4.40;98.00;;;;;;5114740;28;20462;-62
2021/10/29 06:10:05;;;;;;;1.80;1.77;;;4.40;98.00;;;;;;5115075;28;20465;-62
2021/10/29 06:12:34;;;;;;;1.40;1.10;;;4.30;98.00;;;;;;5114726;28;20484;-62
2021/10/29 06:15:01;;;;;;;1.33;1.27;;;4.40;98.00;;;;;;5114246;28;20469;-62
2021/10/29 06:17:29;;;;;;;2.73;1.27;;;4.60;98.00;;;;;;5114200;28;20455;-62
2021/10/29 06:20:00;;;;;;;3.53;1.43;;;4.70;98.00;;;;;;5113846;28;20548;-62
2021/10/29 06:22:30;;;;;;;1.73;1.43;;;4.70;98.00;;;;;;5114196;28;20455;-62
2021/10/29 06:25:05;;;;;;;1.43;1.20;;;4.70;98.00;;;;;;5114274;28;20489;-62
2021/10/29 06:30:20;;;;;;;1.30;1.23;;;4.60;98.00;;;;;;5113214;28;20449;-62
2021/10/29 06:32:47;;;;;;;1.40;1.20;;;4.60;98.00;;;;;;5114434;28;20456;-62
2021/10/29 06:35:14;;;;;;;1.40;1.40;;;4.70;98.00;;;;;;5114178;28;20455;-62
2021/10/29 06:37:43;;;;;;;1.20;1.00;;;4.70;98.00;;;;;;5114275;28;20551;-62
2021/10/29 06:40:13;;;;;;;4.37;1.73;;;4.60;98.00;;;;;;5114132;28;20458;-62
2021/10/29 06:42:47;;;;;;;1.20;1.10;;;4.60;98.00;;;;;;5112993;28;20487;-62
2021/10/29 06:45:23;;;;;;;1.60;1.50;;;4.60;98.00;;;;;;5113910;28;20490;-62
2021/10/29 06:47:52;;;;;;;1.20;1.10;;;4.50;98.00;;;;;;5114100;28;20451;-62
2021/10/29 07:01:24;;;;;;;2.47;1.40;;;4.60;98.00;;;;;;5113799;28;20478;-62
2021/10/29 07:04:16;;;;;;;2.20;1.80;;;4.60;98.00;;;;;;5113962;28;20956;-62
2021/10/29 07:12:38;;;;;;;4.23;1.90;;;4.50;98.00;;;;;;5114050;28;20994;-62
2021/10/29 07:40:07;;;;;;;1.43;1.23;;;5.70;98.00;;;;;;5113454;28;20436;-62
2021/10/29 07:42:39;;;;;;;1.60;1.13;;;5.70;98.00;;;;;;5112916;28;20452;-62
2021/10/29 07:45:08;;;;;;;2.43;1.93;;;5.80;98.00;;;;;;5095282;28;20491;-64
2021/10/29 07:47:38;;;;;;;4.07;1.70;;;5.70;98.00;;;;;;5105118;28;20534;-64
2021/10/29 07:50:07;;;;;;;2.70;1.60;;;5.70;98.00;;;;;;5090837;28;20510;-65
2021/10/29 07:52:36;;;;;;;1.77;1.20;;;5.80;98.00;;;;;;5094266;28;20463;-64
2021/10/29 07:55:03;;;;;;;1.60;1.50;;;6.00;98.00;;;;;;5108218;28;20964;-64
2021/10/29 07:57:30;;;;;;;2.23;1.87;;;6.30;98.00;;;;;;5093586;28;20461;-62
2021/10/29 07:59:57;;;;;;;1.20;1.03;;;6.40;98.00;;;;;;5099764;28;20975;-62
2021/10/29 08:02:27;;;;;;;2.03;1.73;;;6.40;98.00;;;;;;5090734;28;20856;-63
2021/10/29 08:04:55;;;;;;;1.60;1.40;;;6.30;98.00;;;;;;5099536;28;20465;-62
2021/10/29 08:07:23;;;;;;;1.50;1.20;;;6.30;98.00;;;;;;5091080;28;20501;-62
2021/10/29 08:09:50;;;;;;;1.40;1.30;;;6.50;98.00;;;;;;5091511;28;20465;-63
2021/10/29 08:12:19;;;;;;;1.80;1.30;;;6.60;98.00;;;;;;5102897;28;21006;-63
2021/10/29 08:14:47;;;;;;;1.20;1.10;;;6.80;98.00;;;;;;5093942;28;20456;-63
2021/10/29 08:17:14;;;;;;;1.20;1.03;;;7.00;98.00;;;;;;5090592;28;20561;-63
2021/10/29 08:19:41;;;;;;;2.77;1.80;;;7.10;98.00;;;;;;5084349;28;20662;-63
2021/10/29 08:22:10;;;;;;;1.20;1.13;;;7.20;98.00;;;;;;5078386;28;20916;-63
2021/10/29 08:24:38;;;;;;;2.70;2.13;;;7.30;98.00;;;;;;5087525;28;20455;-63
2021/10/29 08:27:06;;;;;;;1.20;1.10;;;7.30;98.00;;;;;;5096785;28;20488;-63
2021/10/29 08:29:33;;;;;;;1.30;1.30;;;7.40;98.00;;;;;;5087437;28;20451;-63
2021/10/29 08:32:01;;;;;;;1.80;1.57;;;7.40;98.00;;;;;;5098931;28;20484;-63
2021/10/29 08:34:29;;;;;;;1.57;1.17;;;7.60;98.00;;;;;;5102950;28;20458;-63
2021/10/29 08:36:57;;;;;;;7.87;1.80;;;7.80;98.00;;;;;;5104664;28;20456;-65
2021/10/29 08:39:26;;;;;;;2.43;1.60;;;8.10;98.00;;;;;;5108147;28;20471;-62
2021/10/29 08:41:53;;;;;;;1.60;1.30;;;8.20;98.00;;;;;;5098959;28;20508;-63
2021/10/29 08:44:20;;;;;;;2.07;1.63;;;8.30;98.00;;;;;;5097404;28;20483;-63
2021/10/29 08:46:48;;;;;;;1.43;1.40;;;8.30;98.00;;;;;;5094433;28;20549;-63
2021/10/29 08:49:15;;;;;;;2.07;1.40;;;8.20;98.00;;;;;;5097915;28;20484;-63
2021/10/29 08:51:43;;;;;;;1.37;1.30;;;8.20;98.00;;;;;;5100025;28;20953;-62
2021/10/29 08:54:11;;;;;;;1.50;1.43;;;8.20;98.00;;;;;;5103434;28;20449;-62
2021/10/29 08:56:40;;;;;;;1.30;1.10;;;8.20;98.00;;;;;;5098579;28;20491;-64
2021/10/29 08:59:13;;;;;;;1.20;1.10;;;8.30;98.00;;;;;;5103794;28;20950;-63
2021/10/29 09:01:52;;;;;;;1.20;0.90;;;8.40;98.00;;;;;;5085270;28;20460;-63
2021/10/29 09:04:23;;;;;;;1.23;1.13;;;8.50;98.00;;;;;;5101156;28;20817;-63
2021/10/29 09:06:56;;;;;;;1.90;1.80;;;8.60;98.00;;;;;;5098267;28;20991;-63
2021/10/29 09:09:53;;;;;;;1.20;1.00;;;8.70;98.00;;;;;;5090590;28;20935;-63
2021/10/29 09:32:22;;;;;;;1.63;1.40;;;10.30;98.00;;;;;;5099092;28;20957;-63
2021/10/29 09:35:06;;;;;;;1.30;1.30;;;10.20;98.00;;;;;;5097603;28;20455;-64
2021/10/29 09:37:37;;;;;;;1.83;1.60;;;10.30;98.00;;;;;;5111308;28;20458;-64
2021/10/29 09:40:14;;;;;;;2.13;1.47;;;10.30;98.00;;;;;;5105480;28;20460;-64
2021/10/29 09:42:42;;;;;;;2.90;1.83;;;10.60;98.00;;;;;;5094129;28;20461;-64
2021/10/29 09:45:17;;;;;;;1.70;1.50;;;10.50;98.00;;;;;;5103342;28;20491;-64
2021/10/29 09:47:50;;;;;;;1.60;1.40;;;10.60;98.00;;;;;;5093228;28;20929;-64
2021/10/29 09:50:27;;;;;;;1.67;1.40;;;10.80;98.00;;;;;;5096597;28;20463;-64
2021/10/29 09:56:01;;;;;;;2.63;1.87;;;11.00;98.00;;;;;;5096791;28;20548;-64
2021/10/29 09:58:28;;;;;;;1.27;1.27;;;11.10;98.00;;;;;;5102525;28;20462;-64
2021/10/29 10:00:58;;;;;;;1.40;1.30;;;11.10;98.00;;;;;;5106762;28;20454;-64
2021/10/29 10:03:26;;;;;;;2.67;1.80;;;11.30;98.00;;;;;;5102230;28;20514;-64
2021/10/29 10:05:55;;;;;;;1.70;1.60;;;11.40;98.00;;;;;;5098920;28;20488;-64
2021/10/29 10:08:27;;;;;;;2.17;1.50;;;11.60;98.00;;;;;;5101165;28;20480;-64
2021/10/29 10:10:58;;;;;;;1.97;1.90;;;11.70;98.00;;;;;;5110270;28;20451;-64
2021/10/29 10:13:26;;;;;;;1.83;1.33;;;11.70;98.00;;;;;;5102742;28;20456;-64
2021/10/29 10:15:55;;;;;;;1.60;1.43;;;11.80;98.00;;;;;;5101557;28;20448;-65
2021/10/29 10:18:25;;;;;;;3.17;1.67;;;11.80;98.00;;;;;;5100935;28;20453;-64
2021/10/29 10:20:53;;;;;;;2.33;1.47;;;11.90;98.00;;;;;;5095540;28;20826;-64
2021/10/29 10:23:24;;;;;;;1.70;1.40;;;12.00;98.00;;;;;;5100172;28;21088;-64
2021/10/29 10:43:44;;;;;;;1.60;1.40;;;12.90;98.00;;;;;;5066382;28;21094;-64
2021/10/29 10:46:18;;;;;;;1.83;1.50;;;13.10;98.00;;;;;;5108924;28;20487;-65
2021/10/29 10:48:51;;;;;;;2.80;1.90;;;13.30;98.00;;;;;;5109487;28;20472;-65
2021/10/29 10:51:42;;;;;;;2.43;1.60;;;13.40;98.00;;;;;;5103063;28;20551;-65
2021/10/29 10:54:14;;;;;;;1.70;1.57;;;13.70;98.00;;;;;;5094876;28;20454;-64
2021/10/29 10:56:58;;;;;;;1.50;1.30;;;13.80;98.00;;;;;;5092972;28;20465;-65
2021/10/29 10:59:33;;;;;;;1.53;1.50;;;14.00;98.00;;;;;;5100413;28;20451;-65
2021/10/29 11:05:23;;;;;;;2.33;1.47;;;14.50;98.00;;;;;;5108733;28;20461;-65
2021/10/29 11:10:59;;;;;;;1.83;1.83;;;15.10;98.00;;;;;;5100815;28;20448;-65
2021/10/29 11:13:27;;;;;;;1.40;1.20;;;15.20;98.00;;;;;;5084647;28;20882;-65
2021/10/29 11:16:01;;;;;;;2.90;2.00;;;15.50;98.00;;;;;;5094095;28;20460;-65
2021/10/29 11:18:33;;;;;;;2.23;1.77;;;15.70;98.00;;;;;;5108195;28;20464;-65
2021/10/29 11:21:21;;;;;;;3.07;2.60;;;15.90;98.00;;;;;;5100533;28;20454;-67
2021/10/29 11:24:04;;;;;;;3.90;2.27;;;16.10;98.00;;;;;;5101138;28;20483;-65
2021/10/29 11:26:37;;;;;;;1.50;1.40;;;16.40;98.00;;;;;;5101003;28;20573;-64
2021/10/29 11:29:05;;;;;;;5.30;2.00;;;16.50;98.00;;;;;;5108860;28;20474;-65
2021/10/29 11:31:34;;;;;;;1.93;1.63;;;16.80;98.00;;;;;;5109376;28;21222;-65
2021/10/29 11:34:04;;;;;;;2.53;2.07;;;17.00;98.00;;;;;;5099303;28;20525;-65
2021/10/29 11:36:33;;;;;;;2.10;2.00;;;17.00;96.90;;;;;;5091380;28;20521;-65
2021/10/29 11:39:04;;;;;;;3.10;2.20;;;16.90;97.40;;;;;;5092400;28;20513;-66
2021/10/29 11:41:34;;;;;;;1.50;1.30;;;17.00;97.50;;;;;;5100052;28;20459;-66
2021/10/29 11:44:03;;;;;;;1.70;1.50;;;17.10;97.90;;;;;;5106424;28;20945;-66
2021/10/29 11:46:32;;;;;;;2.57;1.97;;;17.20;98.00;;;;;;5088954;28;20534;-66
2021/10/29 11:49:02;;;;;;;2.73;1.60;;;17.20;97.80;;;;;;5108800;28;21019;-65
2021/10/29 11:51:33;;;;;;;2.27;2.00;;;16.90;97.10;;;;;;5087925;28;20462;-66
2021/10/29 11:54:10;;;;;;;2.40;1.47;;;16.80;98.00;;;;;;5099962;28;20516;-65
2021/10/29 11:56:41;;;;;;;2.20;1.70;;;16.70;98.00;;;;;;5085661;28;20458;-65
2021/10/29 12:02:01;;;;;;;3.20;1.70;;;16.70;98.00;;;;;;5066099;28;20489;-65
2021/10/29 12:07:23;;;;;;;1.77;1.53;;;16.30;98.00;;;;;;5073145;27;20487;-65
2021/10/29 12:09:52;;;;;;;2.73;2.20;;;16.50;98.00;;;;;;5088351;28;20451;-65
2021/10/29 12:12:23;;;;;;;4.07;2.20;;;16.60;98.00;;;;;;5109369;28;20499;-66
2021/10/29 12:14:52;;;;;;;2.57;1.87;;;16.50;98.00;;;;;;5099962;28;20461;-66
2021/10/29 12:17:23;;;;;;;2.43;1.70;;;16.50;98.00;;;;;;5088759;28;20510;-66
2021/10/29 12:19:54;;;;;;;2.40;1.80;;;16.50;98.00;;;;;;5090854;28;20463;-67
2021/10/29 12:25:21;;;;;;;2.50;1.87;;;16.70;98.00;;;;;;5081273;28;20452;-66
2021/10/29 12:27:55;;;;;;;1.70;1.43;;;16.90;98.00;;;;;;5091869;28;20505;-66
2021/10/29 12:30:30;;;;;;;2.80;1.80;;;16.80;98.00;;;;;;5092148;28;20487;-66
2021/10/29 13:04:02;;;;;;;2.90;1.87;;;17.10;98.00;;;;;;5090068;28;20807;-65
2021/10/29 13:06:30;;;;;;;2.53;2.07;;;17.40;98.00;;;;;;5108532;28;20510;-65
2021/10/29 13:08:58;;;;;;;4.13;1.77;;;17.50;98.00;;;;;;5094612;28;20547;-65
2021/10/29 13:11:26;;;;;;;1.80;1.57;;;17.60;98.00;;;;;;5095516;28;20487;-65
2021/10/29 13:13:59;;;;;;;2.97;1.80;;;17.80;98.00;;;;;;5077788;28;20483;-65
2021/10/29 13:16:28;;;;;;;2.47;1.80;;;17.90;98.00;;;;;;5095341;28;20566;-65
2021/10/29 13:27:40;;;;;;;1.30;1.20;;;17.80;98.00;;;;;;5077129;28;20821;-65
2021/10/29 13:52:39;;;;;;;2.23;2.10;;;18.30;98.00;;;;;;5094869;28;20447;-65
2021/10/29 14:01:06;;;;;;;2.70;1.90;;;19.60;91.60;;;;;;5094770;28;20670;-65
2021/10/29 14:28:24;;;;;;;2.83;1.70;;;22.70;88.60;;;;;;5094059;28;20483;-67
2021/10/29 14:31:06;;;;;;;3.10;2.07;;;23.10;88.40;;;;;;5094023;28;20456;-67
2021/10/29 14:33:36;;;;;;;1.80;1.63;;;23.40;87.10;;;;;;5094184;28;20454;-68
2021/10/29 14:36:09;;;;;;;3.03;2.10;;;23.70;86.30;;;;;;5093252;28;20960;-69
2021/10/29 14:38:44;;;;;;;2.93;2.47;;;23.60;85.40;;;;;;5093572;28;20499;-69
2021/10/29 14:41:15;;;;;;;2.20;1.90;;;23.70;85.90;;;;;;5093786;28;20451;-68
2021/10/29 14:43:46;;;;;;;3.33;2.20;;;23.80;86.10;;;;;;5093436;28;20452;-69
2021/10/29 14:46:26;;;;;;;3.40;1.90;;;24.00;85.00;;;;;;5093618;28;20505;-69
2021/10/29 14:49:03;;;;;;;1.87;1.60;;;24.00;83.60;;;;;;5093495;28;20447;-69
2021/10/29 14:51:54;;;;;;;2.43;1.80;;;23.50;84.20;;;;;;5092598;28;20451;-70
2021/10/29 15:05:52;;;;;;;2.23;1.67;;;23.20;84.80;;;;;;5144205;27;20552;-70
2021/10/29 15:25:18;;;;;;;2.73;1.80;;;20.80;89.10;;;;;;5129712;28;20473;-71
